Nearby METAR Reports

 

RPLL - Ninoy Aquino Int, Philippines
Distance from station: S 15km
Updated: 05/26/2024 2:00pm
Light rain, Overcast
Light rain, Overcast
 Wind from NW
Wind: NW 22 km/h
Temperature: 27°C
Heat Index: 31°C
Dew Point: 25°C
Humidity: 89%
Barometer: 1006 hPa
Summary: Light rain
Clouds: Overcast
Visibility: 8 km
Cloud details: Partly cloudy 610 m
Overcast 2438 m
2024/05/26 06:00 RPLL 260600Z 32012KT 290V020 8000 -RA SCT020 OVC080 27/25 Q1006 NOSIG RMK A2971
RPLC - Angeles/Pampanga, Philippines
Distance from station: NW 71km
Updated: 05/26/2024 2:00pm
Overcast
Overcast
 Wind from N
Wind: N 9 km/h
Temperature: 30°C
Heat Index: 35°C
Dew Point: 24°C
Humidity: 70%
Barometer: 1007 hPa
Clouds: Overcast
Visibility: 7 km
Cloud details: Partly cloudy 549 m
Overcast 3048 m
2024/05/26 06:00 RPLC 260600Z 36005KT 7000 SCT018 OVC100 30/24 Q1007 NOSIG RMK A2974
 
RPLB - Olongapo/Subic, Philippines
Distance from station: WNW 78km
Updated: 05/26/2024 2:00pm
Mostly cloudy
Mostly cloudy
 Wind from SSE
Wind: SSE 11 km/h
Temperature: 31°C
Heat Index: 38°C
Dew Point: 25°C
Humidity: 70%
Barometer: 1007 hPa
Clouds: Mostly cloudy
Visibility: 10 km
Cloud details: Partly cloudy 549 m
Mostly cloudy 2438 m
2024/05/26 06:00 RPLB 260600Z 15006KT 9999 SCT018 BKN080 31/25 Q1007 NOSIG RMK A2974
RPMR - Romblon/Tablas I, Philippines
Distance from station: SSE 270km
Updated: 05/26/2024 2:00pm
Partly cloudy
Partly cloudy
 Wind from SSE
Wind: SSE 31 km/h
Temperature: 32°C
Heat Index: 38°C
Dew Point: 24°C
Humidity: 63%
Barometer: 1009 hPa
Clouds: Partly cloudy
Visibility: 10 km
Cloud details: Few Clouds 549 m
Partly cloudy 2438 m
2024/05/26 06:00 RPMR 260600Z 15017KT 9999 FEW018CB SCT080 32/24 Q1009 RMK A2980 CB N/NE/E/NW
 
RPVK - Kalibo/Panay Isl, Philippines
Distance from station: SSE 364km
Updated: 03/27/2024 9:00am
NOT Current
Mostly cloudy
Mostly cloudy
 Wind from ENE
Wind: ENE 19 km/h
Temperature: 30°C
Heat Index: 39°C
Dew Point: 27°C
Humidity: 84%
Barometer: 1015 hPa
Clouds: Mostly cloudy
Visibility: 10 km
Cloud details: Partly cloudy 488 m
Mostly cloudy 2134 m
Mostly cloudy 7315 m
2024/03/27 01:00 RPVK 270100Z 06010KT 9999 SCT016 BKN070 BKN240 30/27 Q1015 RMK A2997
RPLI - Laoag Intl(Ph-Ar, Philippines
Distance from station: N 394km
Updated: 05/26/2024 2:00pm
Nearby thunderstorm, Partly cloudy
Nearby thunderstorm, Partly cloudy
 Wind from W
Wind: W 15 km/h
Temperature: 33°C
Heat Index: 47°C
Dew Point: 29°C
Humidity: 80%
Barometer: 1006 hPa
Summary: Nearby Thunderstorm
Clouds: Partly cloudy
Visibility: 10 km
Cloud details: Few Clouds 518 m
Partly cloudy 549 m
2024/05/26 06:00 RPLI 260600Z 27008KT 240V320 9999 VCTS FEW017CB SCT018 33/29 Q1006 NOSIG RMK A2971 CB NE-SE
 
RPVM - Mactan-Cebu, Philippines
Distance from station: SE 582km
Updated: 05/26/2024 2:00pm
Mostly cloudy
Mostly cloudy
 Wind from WSW
Wind: WSW 28 km/h
Temperature: 35°C
Heat Index: 43°C
Dew Point: 25°C
Humidity: 56%
Barometer: 1008 hPa
Clouds: Mostly cloudy
Visibility: 10 km
Cloud details: Few Clouds 549 m
Mostly cloudy 3048 m
2024/05/26 06:00 RPVM 260600Z 24015KT 9999 FEW018CB BKN100 35/25 Q1008 NOSIG RMK A2977 CB N/SW
RPVP - Puerto Princesa, Philippines
Distance from station: SSW 598km
Updated: 05/26/2024 2:00pm
Light thunderstorm, Rain, Mostly cloudy
Light thunderstorm, Rain, Mostly cloudy
 Wind from S
Wind: S 11 km/h
Temperature: 28°C
Heat Index: 33°C
Dew Point: 26°C
Humidity: 89%
Barometer: 1009 hPa
Summary: Light thunderstorm, Rain
Clouds: Mostly cloudy
Visibility: 10 km
Cloud details: Partly cloudy 518 m
Mostly cloudy 2438 m
2024/05/26 06:00 RPVP 260600Z 18006KT 9999 -TSRA SCT017CB BKN080 28/26 Q1009 RMK A2980 CB N-NE/S/SW/W
 
RPVD - Dumaguete/Negros, Philippines
Distance from station: SSE 643km
Updated: 05/26/2024 2:00pm
Overcast
Overcast
 Wind from NE
Wind: NE 15 km/h
Temperature: 35°C
Heat Index: 43°C
Dew Point: 25°C
Humidity: 56%
Barometer: 1007 hPa
Clouds: Overcast
Visibility: 10 km
Cloud details: Partly cloudy 732 m
Overcast 6706 m
2024/05/26 06:00 RPVD 260600Z 04008KT 9999 SCT024TCU OVC220 35/25 Q1007 RMK A2974 TCU N/SW
RPMZ - Zamboanga (civ/A, Philippines
Distance from station: S 868km
Updated: 05/26/2024 2:00pm
Mostly cloudy
Mostly cloudy
 Wind from SSW
Wind: SSW 7 km/h
Temperature: 30°C
Heat Index: 36°C
Dew Point: 25°C
Humidity: 75%
Barometer: 1009 hPa
Clouds: Mostly cloudy
Visibility: 10 km
Cloud details: Partly cloudy 488 m
Mostly cloudy 2743 m
2024/05/26 06:00 RPMZ 260600Z 20004KT 130V260 9999 SCT016CB BKN090 30/25 Q1009 RMK A2980 CB SE-SW/N/OHD
 
RPMD - Davao/Francisco, Philippines
Distance from station: SSE 980km
Updated: 05/26/2024 2:00pm
Partly cloudy
Partly cloudy
 Wind from S
Wind: S 24 km/h
Temperature: 32°C
Heat Index: 42°C
Dew Point: 26°C
Humidity: 71%
Barometer: 1008 hPa
Clouds: Partly cloudy
Visibility: 10 km
Cloud details: Partly cloudy 457 m
2024/05/26 06:00 RPMD 260600Z 19013KT 9999 SCT015CB 32/26 Q1008 RMK A2977 CB NE/SW-W